createdAt,value
2018-11-21T00:01:56.517Z,11.20
2018-11-21T00:04:43.131Z,11.77
2018-11-21T00:07:33.783Z,11.57
2018-11-21T00:10:20.405Z,11.57
2018-11-21T00:13:07.099Z,10.70
2018-11-21T00:15:53.716Z,10.20
2018-11-21T00:18:40.360Z,11.27
2018-11-21T00:21:26.962Z,14.67
2018-11-21T00:24:13.642Z,10.37
2018-11-21T00:27:00.251Z,10.70
2018-11-21T00:29:46.921Z,11.37
2018-11-21T00:32:33.568Z,11.40
2018-11-21T00:35:20.203Z,10.10
2018-11-21T00:38:06.828Z,10.17
2018-11-21T00:40:53.458Z,10.17
2018-11-21T00:43:40.084Z,10.03
2018-11-21T00:46:26.724Z,9.90
2018-11-21T00:49:13.344Z,10.47
2018-11-21T00:52:00.180Z,9.27
2018-11-21T00:54:46.839Z,10.07
2018-11-21T00:57:33.480Z,10.30
2018-11-21T01:00:20.100Z,10.33
2018-11-21T01:02:59.860Z,9.77
2018-11-21T01:05:39.374Z,9.93
2018-11-21T01:08:19.317Z,9.93
2018-11-21T01:16:56.291Z,10.43
2018-11-21T01:19:35.700Z,10.00
2018-11-21T01:22:15.059Z,10.00
2018-11-21T01:24:54.672Z,10.80
2018-11-21T01:27:34.000Z,10.63
2018-11-21T01:30:13.502Z,10.00
2018-11-21T01:32:53.024Z,11.50
2018-11-21T01:35:33.024Z,10.97
2018-11-21T01:38:12.686Z,13.30
2018-11-21T01:40:52.186Z,10.67
2018-11-21T01:43:31.930Z,10.27
2018-11-21T01:46:12.396Z,11.17
2018-11-21T01:48:52.066Z,11.27
2018-11-21T01:51:32.504Z,10.93
2018-11-21T01:54:12.676Z,10.53
2018-11-21T01:56:52.234Z,10.47
2018-11-21T01:59:32.191Z,11.63
2018-11-21T02:02:12.069Z,10.73
2018-11-21T02:04:51.483Z,11.60
2018-11-21T02:07:31.008Z,10.77
2018-11-21T02:10:11.061Z,10.13
2018-11-21T02:12:50.733Z,11.60
2018-11-21T02:15:30.475Z,11.27
2018-11-21T02:18:09.882Z,10.27
2018-11-21T02:20:49.703Z,10.97
2018-11-21T02:23:29.310Z,10.77
2018-11-21T02:26:09.090Z,10.33
2018-11-21T02:28:48.587Z,13.43
2018-11-21T02:31:28.285Z,9.70
2018-11-21T02:34:08.038Z,10.93
2018-11-21T02:36:47.620Z,10.20
2018-11-21T02:39:27.432Z,11.30
2018-11-21T02:42:06.734Z,10.60
2018-11-21T02:44:46.358Z,10.87
2018-11-21T02:50:24.644Z,10.77
2018-11-21T02:53:02.431Z,11.33
2018-11-21T02:55:49.074Z,11.07
2018-11-21T02:58:35.697Z,12.00
2018-11-21T03:01:22.296Z,11.17
2018-11-21T03:04:08.917Z,11.80
2018-11-21T03:06:55.518Z,12.33
2018-11-21T03:09:42.148Z,12.00
2018-11-21T03:12:48.299Z,10.60
2018-11-21T03:15:35.139Z,11.07
2018-11-21T03:18:21.779Z,11.87
2018-11-21T03:21:08.397Z,10.73
2018-11-21T03:23:54.996Z,11.63
2018-11-21T03:26:41.776Z,11.20
2018-11-21T03:29:28.360Z,11.87
2018-11-21T03:32:14.993Z,11.40
2018-11-21T03:35:01.597Z,11.90
2018-11-21T03:37:48.233Z,11.30
2018-11-21T03:40:34.873Z,12.33
2018-11-21T03:43:21.519Z,12.23
2018-11-21T03:46:08.124Z,12.00
2018-11-21T03:48:54.733Z,12.07
2018-11-21T03:51:41.311Z,12.30
2018-11-21T03:54:27.933Z,11.20
2018-11-21T03:57:14.531Z,12.03
2018-11-21T04:02:47.830Z,12.00
2018-11-21T04:05:27.435Z,12.57
2018-11-21T04:08:05.080Z,11.90
2018-11-21T04:10:44.647Z,12.37
2018-11-21T04:16:37.322Z,12.53
2018-11-21T04:22:14.894Z,11.33
2018-11-21T04:24:54.518Z,12.23
2018-11-21T04:27:34.337Z,12.60
2018-11-21T04:30:13.726Z,12.27
2018-11-21T04:39:04.256Z,12.63
2018-11-21T04:41:44.226Z,11.97
2018-11-21T04:44:24.114Z,13.00
2018-11-21T04:47:03.537Z,11.87
2018-11-21T04:49:43.128Z,12.17
2018-11-21T04:52:22.809Z,12.93
2018-11-21T04:55:02.607Z,13.43
2018-11-21T04:57:42.098Z,12.47
2018-11-21T05:00:21.778Z,12.17
2018-11-21T05:03:01.415Z,12.57
2018-11-21T05:05:40.788Z,11.70
2018-11-21T05:08:20.462Z,11.87
2018-11-21T05:11:00.000Z,12.90
2018-11-21T05:16:38.521Z,12.43
2018-11-21T05:19:18.139Z,11.93
2018-11-21T05:21:57.496Z,13.07
2018-11-21T05:24:37.355Z,12.97
2018-11-21T05:30:29.850Z,12.33
2018-11-21T05:33:09.798Z,13.27
2018-11-21T05:35:50.078Z,13.47
2018-11-21T05:38:29.544Z,13.30
2018-11-21T05:41:09.251Z,14.50
2018-11-21T05:43:48.863Z,12.70
2018-11-21T05:49:28.364Z,13.03
2018-11-21T05:52:08.088Z,13.97
2018-11-21T05:54:47.501Z,12.30
2018-11-21T05:57:27.077Z,14.23
2018-11-21T06:06:17.043Z,13.60
2018-11-21T06:08:44.166Z,13.20
2018-11-21T06:11:11.209Z,13.63
2018-11-21T06:13:38.253Z,13.43
2018-11-21T06:16:05.302Z,13.93
2018-11-21T06:18:32.345Z,13.83
2018-11-21T06:20:59.586Z,14.67
2018-11-21T06:23:26.622Z,12.87
2018-11-21T06:25:53.654Z,13.70
2018-11-21T06:28:20.690Z,13.87
2018-11-21T06:30:47.735Z,14.10
2018-11-21T06:33:14.753Z,13.53
2018-11-21T06:35:41.799Z,13.87
2018-11-21T06:38:10.622Z,13.40
2018-11-21T06:40:37.671Z,13.70
2018-11-21T06:43:04.765Z,13.00
2018-11-21T06:45:31.825Z,12.53
2018-11-21T06:47:58.843Z,15.23
2018-11-21T06:50:25.887Z,13.57
2018-11-21T06:52:53.935Z,13.23
2018-11-21T06:55:20.985Z,13.80
2018-11-21T06:57:48.077Z,13.37
2018-11-21T07:00:15.133Z,14.13
2018-11-21T07:02:42.182Z,14.57
2018-11-21T07:05:10.104Z,13.63
2018-11-21T07:07:37.167Z,13.80
2018-11-21T07:10:10.499Z,14.03
2018-11-21T07:12:37.564Z,13.50
2018-11-21T07:15:05.351Z,13.60
2018-11-21T07:17:32.440Z,13.47
2018-11-21T07:19:59.507Z,15.03
2018-11-21T07:22:26.533Z,13.13
2018-11-21T07:24:53.622Z,13.43
2018-11-21T07:27:20.647Z,14.10
2018-11-21T07:29:47.768Z,12.80
2018-11-21T07:32:14.809Z,14.03
2018-11-21T07:34:41.880Z,17.23
2018-11-21T07:37:08.935Z,12.40
2018-11-21T07:39:36.025Z,13.83
2018-11-21T07:42:03.080Z,12.70
2018-11-21T07:44:30.122Z,13.97
2018-11-21T07:46:57.203Z,12.87
2018-11-21T07:49:24.291Z,12.93
2018-11-21T07:51:51.326Z,13.63
2018-11-21T07:54:18.382Z,14.17
2018-11-21T07:57:28.281Z,13.73
2018-11-21T08:00:43.740Z,13.53
2018-11-21T08:03:10.851Z,11.83
2018-11-21T08:05:44.263Z,12.57
2018-11-21T08:08:24.064Z,12.93
2018-11-21T08:11:25.574Z,13.10
2018-11-21T08:14:30.383Z,14.53
2018-11-21T08:17:14.844Z,13.93
2018-11-21T08:20:16.590Z,13.97
2018-11-21T08:23:01.872Z,12.77
2018-11-21T08:25:46.914Z,13.07
2018-11-21T08:28:29.798Z,13.83
2018-11-21T08:30:56.848Z,13.67
2018-11-21T08:33:23.866Z,14.10
2018-11-21T08:35:50.934Z,13.70
2018-11-21T08:38:17.960Z,12.77
2018-11-21T08:40:45.232Z,14.40
2018-11-21T08:43:12.256Z,12.47
2018-11-21T08:45:39.334Z,13.00
2018-11-21T08:48:06.716Z,13.77
2018-11-21T08:50:33.912Z,13.33
2018-11-21T08:53:01.445Z,14.00
2018-11-21T08:55:28.449Z,13.57
2018-11-21T08:57:55.499Z,12.17
2018-11-21T09:00:22.526Z,12.90
2018-11-21T09:02:49.850Z,13.03
2018-11-21T09:05:16.870Z,13.50
2018-11-21T09:07:43.903Z,12.53
2018-11-21T09:10:12.105Z,13.37
2018-11-21T09:12:39.370Z,13.90
2018-11-21T09:15:08.607Z,13.40
2018-11-21T09:17:35.683Z,12.93
2018-11-21T09:20:02.873Z,13.30
2018-11-21T09:22:29.923Z,13.60
2018-11-21T09:24:56.995Z,13.67
2018-11-21T09:27:24.031Z,12.37
2018-11-21T09:29:51.085Z,12.50
2018-11-21T09:32:18.097Z,12.63
2018-11-21T09:34:45.125Z,13.93
2018-11-21T09:37:12.198Z,13.20
2018-11-21T09:39:39.230Z,13.50
2018-11-21T09:42:06.261Z,13.70
2018-11-21T09:45:25.977Z,12.53
2018-11-21T09:48:06.429Z,12.90
2018-11-21T09:50:47.282Z,12.93
2018-11-21T09:53:28.019Z,12.47
2018-11-21T09:56:08.915Z,13.17
2018-11-21T09:58:49.724Z,13.80
2018-11-21T10:01:30.584Z,13.13
2018-11-21T10:04:11.464Z,13.13
2018-11-21T10:06:52.311Z,13.33
2018-11-21T10:09:35.371Z,14.93
2018-11-21T10:12:15.509Z,12.97
2018-11-21T10:14:56.059Z,14.03
2018-11-21T10:17:36.680Z,13.67
2018-11-21T10:20:17.208Z,12.47
2018-11-21T10:22:57.737Z,13.03
2018-11-21T10:25:38.351Z,12.90
2018-11-21T10:28:18.758Z,13.13
2018-11-21T10:30:59.502Z,12.70
2018-11-21T10:33:40.008Z,13.77
2018-11-21T10:36:20.755Z,13.53
2018-11-21T10:39:01.693Z,14.00
2018-11-21T10:41:42.207Z,14.10
2018-11-21T10:44:22.641Z,13.70
2018-11-21T10:47:03.438Z,14.23
2018-11-21T10:49:43.447Z,14.03
2018-11-21T10:52:24.152Z,14.43
2018-11-21T10:55:04.478Z,13.83
2018-11-21T10:57:45.046Z,14.23
2018-11-21T11:00:44.703Z,14.57
2018-11-21T11:03:48.120Z,13.97
2018-11-21T11:06:49.692Z,14.20
2018-11-21T11:09:48.783Z,13.60
2018-11-21T11:12:47.896Z,15.67
2018-11-21T11:15:53.292Z,15.03
2018-11-21T11:18:55.286Z,14.43
2018-11-21T11:21:55.644Z,14.20
2018-11-21T11:28:06.220Z,12.97
2018-11-21T11:31:05.782Z,14.77
2018-11-21T11:34:05.435Z,13.73
2018-11-21T11:37:08.068Z,13.07
2018-11-21T11:40:10.515Z,13.17
2018-11-21T11:43:06.701Z,13.33
2018-11-21T11:46:08.919Z,15.03
2018-11-21T11:49:08.823Z,15.03
2018-11-21T11:52:08.543Z,15.37
2018-11-21T11:55:13.943Z,14.97
2018-11-21T11:58:10.129Z,15.73
2018-11-21T12:01:09.819Z,16.10
2018-11-21T12:04:12.004Z,16.83
2018-11-21T12:07:14.314Z,15.53
2018-11-21T12:10:16.525Z,15.97
2018-11-21T12:13:15.504Z,15.70
2018-11-21T12:16:21.339Z,17.73
2018-11-21T12:19:21.115Z,15.90
2018-11-21T12:25:22.499Z,16.03
2018-11-21T12:28:27.693Z,16.97
2018-11-21T12:31:27.461Z,15.50
2018-11-21T12:34:27.230Z,16.47
2018-11-21T12:40:37.009Z,14.83
2018-11-21T12:43:36.844Z,15.37
2018-11-21T12:46:36.592Z,15.13
2018-11-21T12:49:35.631Z,16.83
2018-11-21T12:52:35.223Z,15.57
2018-11-21T12:55:25.640Z,16.00
2018-11-21T12:58:25.195Z,17.37
2018-11-21T13:01:24.213Z,16.30
2018-11-21T13:04:29.170Z,16.10
2018-11-21T13:07:28.951Z,15.83
2018-11-21T13:10:28.112Z,14.20
2018-11-21T13:13:27.684Z,15.47
2018-11-21T13:16:33.447Z,16.57
2018-11-21T13:19:29.776Z,15.47
2018-11-21T13:22:18.710Z,16.10
2018-11-21T13:25:16.407Z,16.47
2018-11-21T13:28:15.486Z,15.80
2018-11-21T13:31:14.562Z,16.40
2018-11-21T13:34:14.056Z,15.90
2018-11-21T13:37:16.854Z,15.43
2018-11-21T13:40:08.994Z,16.43
2018-11-21T13:43:03.395Z,16.10
2018-11-21T13:46:03.213Z,14.63
2018-11-21T13:52:07.904Z,15.43
2018-11-21T13:55:07.491Z,14.97
2018-11-21T13:57:48.300Z,14.87
2018-11-21T14:00:29.160Z,15.70
2018-11-21T14:03:10.076Z,15.10
2018-11-21T14:05:50.463Z,16.17
2018-11-21T14:08:31.210Z,16.30
2018-11-21T14:11:11.938Z,15.43
2018-11-21T14:13:52.637Z,16.10
2018-11-21T14:16:32.632Z,15.57
2018-11-21T14:19:13.356Z,15.03
2018-11-21T14:21:55.895Z,15.00
2018-11-21T14:24:34.364Z,15.80
2018-11-21T14:27:13.392Z,15.40
2018-11-21T14:30:01.274Z,14.30
2018-11-21T14:32:49.084Z,15.03
2018-11-21T14:38:33.093Z,15.63
2018-11-21T14:44:28.300Z,15.97
2018-11-21T14:50:30.144Z,15.17
2018-11-21T14:56:12.351Z,15.53
2018-11-21T14:59:00.167Z,15.00
2018-11-21T15:01:47.913Z,15.43
2018-11-21T15:04:35.822Z,14.60
2018-11-21T15:10:30.984Z,16.93
2018-11-21T15:13:18.779Z,15.37
2018-11-21T15:16:06.669Z,15.03
2018-11-21T15:18:54.445Z,15.17
2018-11-21T15:21:42.226Z,15.00
2018-11-21T15:24:30.005Z,14.93
2018-11-21T15:41:51.889Z,14.73
2018-11-21T15:47:48.462Z,14.60
2018-11-21T15:53:43.661Z,14.00
2018-11-21T15:56:31.440Z,15.10
2018-11-21T15:59:19.247Z,14.20
2018-11-21T16:02:07.038Z,14.77
2018-11-21T16:07:48.965Z,13.97
2018-11-21T16:10:48.487Z,15.63
2018-11-21T16:13:29.254Z,14.27
2018-11-21T16:16:09.762Z,13.77
2018-11-21T16:18:50.346Z,13.00
2018-11-21T16:21:31.297Z,12.97
2018-11-21T16:24:11.841Z,13.43
2018-11-21T16:26:52.409Z,13.60
2018-11-21T16:29:36.735Z,13.00
2018-11-21T16:32:13.374Z,12.73
2018-11-21T16:34:53.969Z,11.90
2018-11-21T16:37:34.772Z,13.17
2018-11-21T16:40:20.103Z,11.47
2018-11-21T16:43:00.513Z,11.80
2018-11-21T16:45:43.158Z,11.97
2018-11-21T16:48:23.484Z,12.23
2018-11-21T16:51:04.252Z,12.23
2018-11-21T16:53:44.859Z,13.57
2018-11-21T16:56:25.773Z,14.17
2018-11-21T16:59:06.250Z,14.00
2018-11-21T17:01:46.887Z,14.07
2018-11-21T17:04:27.441Z,12.53
2018-11-21T17:07:08.276Z,14.30
2018-11-21T17:09:48.506Z,13.57
2018-11-21T17:12:29.246Z,13.37
2018-11-21T17:15:09.604Z,14.97
2018-11-21T17:17:49.724Z,14.97
2018-11-21T17:20:31.973Z,15.50
2018-11-21T17:23:12.543Z,13.77
2018-11-21T17:25:53.376Z,13.37
2018-11-21T17:28:34.239Z,13.20
2018-11-21T17:31:13.132Z,12.97
2018-11-21T17:34:00.940Z,14.37
2018-11-21T17:42:50.402Z,13.80
2018-11-21T17:48:32.012Z,13.60
2018-11-21T17:51:23.204Z,13.80
2018-11-21T17:57:15.061Z,12.97
2018-11-21T18:03:11.071Z,12.43
2018-11-21T18:05:58.833Z,13.50
2018-11-21T18:08:46.644Z,13.13
2018-11-21T18:11:34.421Z,13.77
2018-11-21T18:20:10.732Z,14.87
2018-11-21T18:26:05.975Z,13.43
2018-11-21T18:34:55.156Z,13.00
2018-11-21T18:37:43.802Z,12.57
2018-11-21T18:43:39.824Z,13.37
2018-11-21T18:49:35.059Z,13.57
2018-11-21T18:52:22.836Z,12.20
2018-11-21T18:58:25.965Z,12.77
2018-11-21T19:04:07.632Z,11.63
2018-11-21T19:06:55.413Z,12.23
2018-11-21T19:09:43.215Z,12.33
2018-11-21T19:12:23.263Z,10.93
2018-11-21T19:15:03.953Z,11.90
2018-11-21T19:17:44.707Z,12.73
2018-11-21T19:20:26.436Z,12.90
2018-11-21T19:23:08.653Z,12.20
2018-11-21T19:25:49.344Z,12.83
2018-11-21T19:28:30.039Z,12.23
2018-11-21T19:31:10.856Z,12.73
2018-11-21T19:33:51.814Z,12.03
2018-11-21T19:36:32.665Z,11.40
2018-11-21T19:39:14.022Z,12.00
2018-11-21T19:41:54.296Z,10.90
2018-11-21T19:44:34.846Z,11.07
2018-11-21T19:47:15.175Z,11.53
2018-11-21T19:52:37.735Z,10.83
2018-11-21T19:55:23.584Z,11.27
2018-11-21T19:58:06.512Z,10.33
2018-11-21T20:00:47.298Z,10.93
2018-11-21T20:03:28.334Z,10.07
2018-11-21T20:06:08.998Z,10.70
2018-11-21T20:08:49.848Z,9.57
2018-11-21T20:11:30.002Z,10.50
2018-11-21T20:14:10.957Z,10.43
2018-11-21T20:16:51.743Z,10.80
2018-11-21T20:19:32.024Z,10.13
2018-11-21T20:22:12.812Z,10.93
2018-11-21T20:24:53.714Z,13.60
2018-11-21T20:27:34.442Z,12.17
2018-11-21T20:30:16.292Z,11.87
2018-11-21T20:32:56.783Z,10.73
2018-11-21T20:35:37.976Z,10.80
2018-11-21T20:38:18.444Z,10.27
2018-11-21T20:40:59.040Z,10.90
2018-11-21T20:43:39.768Z,10.40
2018-11-21T20:46:19.872Z,10.90
2018-11-21T20:49:00.561Z,10.10
2018-11-21T20:51:39.517Z,9.63
2018-11-21T21:00:30.411Z,10.77
2018-11-21T21:03:18.346Z,10.93
2018-11-21T21:06:06.356Z,10.63
2018-11-21T21:08:35.191Z,11.20
2018-11-21T21:11:23.053Z,9.77
2018-11-21T21:14:11.164Z,10.50
2018-11-21T21:16:58.943Z,11.20
2018-11-21T21:19:46.746Z,10.37
2018-11-21T21:22:34.662Z,10.93
2018-11-21T21:25:23.939Z,11.13
2018-11-21T21:38:19.396Z,10.43
2018-11-21T21:40:48.683Z,10.77
2018-11-21T21:43:36.942Z,9.97
2018-11-21T21:46:25.237Z,10.80
2018-11-21T21:49:13.199Z,10.20
2018-11-21T21:52:01.236Z,11.77
2018-11-21T21:54:49.041Z,10.77
2018-11-21T21:57:37.431Z,10.47
2018-11-21T22:00:26.562Z,10.30
2018-11-21T22:03:12.497Z,10.47
2018-11-21T22:05:53.823Z,10.43
2018-11-21T22:08:34.393Z,10.13
2018-11-21T22:11:15.008Z,10.87
2018-11-21T22:13:58.078Z,9.87
2018-11-21T22:16:39.782Z,9.73
2018-11-21T22:19:20.325Z,9.70
2018-11-21T22:24:43.363Z,9.13
2018-11-21T22:29:54.306Z,10.83
2018-11-21T22:32:23.320Z,10.63
2018-11-21T22:34:52.458Z,11.03
2018-11-21T22:37:21.739Z,11.17
2018-11-21T22:40:10.620Z,11.17
2018-11-21T22:42:58.539Z,10.37
2018-11-21T22:45:46.506Z,11.20
2018-11-21T22:48:15.473Z,11.47
2018-11-21T22:50:44.823Z,12.80
2018-11-21T22:53:13.888Z,11.90
2018-11-21T22:56:01.926Z,12.90
2018-11-21T22:58:30.897Z,11.67
2018-11-21T23:00:59.917Z,12.30
2018-11-21T23:03:47.940Z,13.90
2018-11-21T23:06:35.783Z,12.03
2018-11-21T23:09:24.279Z,13.20
2018-11-21T23:12:12.324Z,13.27
2018-11-21T23:15:00.400Z,13.10
2018-11-21T23:17:29.558Z,12.50
2018-11-21T23:20:17.732Z,12.70
2018-11-21T23:23:05.711Z,12.53
2018-11-21T23:25:53.946Z,12.80
2018-11-21T23:28:23.026Z,13.80
2018-11-21T23:31:11.008Z,12.47
2018-11-21T23:33:59.064Z,11.87
2018-11-21T23:36:47.196Z,12.83
2018-11-21T23:39:16.246Z,13.13
2018-11-21T23:42:04.416Z,13.77
2018-11-21T23:44:52.560Z,13.50
2018-11-21T23:47:40.588Z,14.37
2018-11-21T23:50:28.801Z,11.83
2018-11-21T23:53:16.877Z,11.90
2018-11-21T23:56:05.158Z,13.40
2018-11-21T23:58:53.280Z,13.60
